createdAt,value
2018-07-19T00:00:00.529Z,2.70
2018-07-19T00:02:28.589Z,2.67
2018-07-19T00:04:56.626Z,2.87
2018-07-19T00:07:24.663Z,2.70
2018-07-19T00:09:52.693Z,2.60
2018-07-19T00:12:20.741Z,2.90
2018-07-19T00:14:48.787Z,2.57
2018-07-19T00:17:16.821Z,3.10
2018-07-19T00:19:44.866Z,2.83
2018-07-19T00:22:12.897Z,2.80
2018-07-19T00:24:40.938Z,2.97
2018-07-19T00:27:08.966Z,2.63
2018-07-19T00:29:37.010Z,2.73
2018-07-19T00:32:05.056Z,2.90
2018-07-19T00:34:33.102Z,2.87
2018-07-19T00:37:01.126Z,3.00
2018-07-19T00:39:29.162Z,2.43
2018-07-19T00:41:57.214Z,2.67
2018-07-19T00:44:25.146Z,2.87
2018-07-19T00:46:53.145Z,2.70
2018-07-19T00:49:21.190Z,2.30
2018-07-19T00:51:49.242Z,2.83
2018-07-19T00:54:17.283Z,2.53
2018-07-19T00:56:45.326Z,2.80
2018-07-19T00:59:13.358Z,2.53
2018-07-19T01:01:41.398Z,3.17
2018-07-19T01:04:09.445Z,2.40
2018-07-19T01:06:37.478Z,2.90
2018-07-19T01:09:08.458Z,2.50
2018-07-19T01:11:36.597Z,2.70
2018-07-19T01:14:04.647Z,2.73
2018-07-19T01:16:32.670Z,2.90
2018-07-19T01:19:00.730Z,3.30
2018-07-19T01:21:28.753Z,3.17
2018-07-19T01:23:56.774Z,2.90
2018-07-19T01:26:24.814Z,3.23
2018-07-19T01:28:52.889Z,3.27
2018-07-19T01:31:20.926Z,2.87
2018-07-19T01:33:49.002Z,3.00
2018-07-19T01:36:17.038Z,3.67
2018-07-19T01:38:45.070Z,3.47
2018-07-19T01:42:25.566Z,3.40
2018-07-19T01:44:53.606Z,3.10
2018-07-19T01:47:21.645Z,3.43
2018-07-19T01:49:49.681Z,2.90
2018-07-19T01:52:17.742Z,3.00
2018-07-19T01:54:45.646Z,3.30
2018-07-19T01:57:14.933Z,2.80
2018-07-19T01:59:43.605Z,3.17
2018-07-19T02:02:11.922Z,2.80
2018-07-19T02:04:39.954Z,3.00
2018-07-19T02:07:08.250Z,3.13
2018-07-19T02:09:36.326Z,2.87
2018-07-19T02:12:04.371Z,2.97
2018-07-19T02:14:32.653Z,3.43
2018-07-19T02:17:00.917Z,2.73
2018-07-19T02:19:28.954Z,2.67
2018-07-19T02:21:56.992Z,4.70
2018-07-19T02:24:25.023Z,3.43
2018-07-19T02:26:53.098Z,3.87
2018-07-19T02:29:21.394Z,3.37
2018-07-19T02:31:49.428Z,3.73
2018-07-19T02:34:17.457Z,3.90
2018-07-19T02:36:45.493Z,3.80
2018-07-19T02:39:14.134Z,3.93
2018-07-19T02:41:42.398Z,3.27
2018-07-19T02:44:11.478Z,3.80
2018-07-19T02:46:40.658Z,3.80
2018-07-19T02:49:08.913Z,3.10
2018-07-19T02:51:37.190Z,2.90
2018-07-19T02:54:05.238Z,3.70
2018-07-19T02:56:33.302Z,3.43
2018-07-19T02:59:01.382Z,3.60
2018-07-19T03:01:29.409Z,3.77
2018-07-19T03:03:57.446Z,3.33
2018-07-19T03:06:25.653Z,4.03
2018-07-19T03:08:53.665Z,3.73
2018-07-19T03:11:21.958Z,3.50
2018-07-19T03:13:50.090Z,3.20
2018-07-19T03:16:18.162Z,3.90
2018-07-19T03:18:46.246Z,3.63
2018-07-19T03:21:14.322Z,3.40
2018-07-19T03:23:42.518Z,4.00
2018-07-19T03:26:10.781Z,3.60
2018-07-19T03:28:38.809Z,3.50
2018-07-19T03:31:07.339Z,3.67
2018-07-19T03:33:35.212Z,3.77
2018-07-19T03:36:03.254Z,4.00
2018-07-19T03:38:31.290Z,3.60
2018-07-19T03:40:59.322Z,4.60
2018-07-19T03:43:27.366Z,3.90
2018-07-19T03:45:55.397Z,4.17
2018-07-19T03:48:23.427Z,3.97
2018-07-19T03:50:51.458Z,4.27
2018-07-19T03:53:19.514Z,4.13
2018-07-19T03:55:47.558Z,4.10
2018-07-19T03:58:15.593Z,3.80
2018-07-19T04:00:43.633Z,3.63
2018-07-19T04:03:11.666Z,4.03
2018-07-19T04:05:39.702Z,4.03
2018-07-19T04:08:07.737Z,4.13
2018-07-19T04:10:35.786Z,3.90
2018-07-19T04:13:03.831Z,3.30
2018-07-19T04:15:31.865Z,3.80
2018-07-19T04:17:59.914Z,3.93
2018-07-19T04:20:29.246Z,3.47
2018-07-19T04:30:20.381Z,4.27
2018-07-19T04:37:44.142Z,4.73
2018-07-19T04:40:12.231Z,4.20
2018-07-19T04:42:40.370Z,4.70
2018-07-19T04:45:08.414Z,4.17
2018-07-19T04:47:36.461Z,4.73
2018-07-19T04:50:04.289Z,4.67
2018-07-19T04:52:32.337Z,4.77
2018-07-19T04:55:00.379Z,5.13
2018-07-19T04:57:28.422Z,5.10
2018-07-19T04:59:56.492Z,5.37
2018-07-19T05:02:24.525Z,5.67
2018-07-19T05:04:52.562Z,5.10
2018-07-19T05:07:20.394Z,4.83
2018-07-19T05:09:48.626Z,4.53
2018-07-19T05:12:16.706Z,5.17
2018-07-19T05:14:45.152Z,4.70
2018-07-19T05:17:13.303Z,5.23
2018-07-19T05:19:41.670Z,5.27
2018-07-19T05:22:09.721Z,4.70
2018-07-19T05:24:37.770Z,4.53
2018-07-19T05:27:05.840Z,5.60
2018-07-19T05:29:33.886Z,5.63
2018-07-19T05:32:01.935Z,5.43
2018-07-19T05:34:29.993Z,6.00
2018-07-19T05:36:58.040Z,5.27
2018-07-19T05:39:26.105Z,5.80
2018-07-19T05:41:54.142Z,5.80
2018-07-19T05:44:22.663Z,5.10
2018-07-19T05:46:50.703Z,4.90
2018-07-19T05:49:18.782Z,5.03
2018-07-19T05:51:46.847Z,5.40
2018-07-19T05:54:15.065Z,6.17
2018-07-19T05:56:43.110Z,5.53
2018-07-19T05:59:11.149Z,5.03
2018-07-19T06:01:39.194Z,4.90
2018-07-19T06:04:07.229Z,4.83
2018-07-19T06:06:35.287Z,5.27
2018-07-19T06:09:04.566Z,4.60
2018-07-19T06:11:32.403Z,4.83
2018-07-19T06:14:00.433Z,4.20
2018-07-19T06:16:28.478Z,4.77
2018-07-19T06:18:56.512Z,5.13
2018-07-19T06:21:24.681Z,4.20
2018-07-19T06:23:52.777Z,3.93
2018-07-19T06:26:20.822Z,4.40
2018-07-19T06:28:48.862Z,3.97
2018-07-19T06:31:17.318Z,3.70
2018-07-19T06:33:45.383Z,3.77
2018-07-19T06:36:13.415Z,3.73
2018-07-19T06:38:41.457Z,3.90
2018-07-19T06:53:26.217Z,3.47
2018-07-19T06:58:21.650Z,4.00
2018-07-19T07:00:49.703Z,3.60
2018-07-19T07:08:12.522Z,3.50
2018-07-19T07:10:40.634Z,3.20
2018-07-19T07:20:30.871Z,2.70
2018-07-19T07:22:58.911Z,3.50
2018-07-19T07:25:26.937Z,3.20
2018-07-19T07:37:44.541Z,2.80
2018-07-19T07:42:39.781Z,3.30
2018-07-19T07:45:07.814Z,2.67
2018-07-19T07:47:35.862Z,2.87
2018-07-19T07:50:03.690Z,2.90
2018-07-19T07:52:31.723Z,3.00
2018-07-19T07:54:59.766Z,3.10
2018-07-19T07:57:27.805Z,2.80
2018-07-19T08:02:23.244Z,3.17
2018-07-19T08:04:51.274Z,2.90
2018-07-19T08:07:19.318Z,3.30
2018-07-19T08:14:42.134Z,3.00
2018-07-19T08:26:59.706Z,3.00
2018-07-19T08:29:27.748Z,2.63
2018-07-19T08:31:55.814Z,3.10
2018-07-19T08:36:51.230Z,3.10
2018-07-19T08:41:46.713Z,3.00
2018-07-19T08:44:14.727Z,2.77
2018-07-19T08:46:42.771Z,2.95
2018-07-19T08:49:10.810Z,3.20
2018-07-19T08:51:38.895Z,2.77
2018-07-19T08:56:34.313Z,3.20
2018-07-19T08:59:02.316Z,3.00
2018-07-19T09:01:30.350Z,2.90
2018-07-19T09:03:58.382Z,3.00
2018-07-19T09:06:26.431Z,2.95
2018-07-19T09:08:54.462Z,3.08
2018-07-19T09:11:22.502Z,3.40
2018-07-19T09:13:50.542Z,3.00
2018-07-19T09:16:18.585Z,2.45
2018-07-19T09:18:46.622Z,2.40
2018-07-19T09:21:14.666Z,2.87
2018-07-19T09:23:42.723Z,2.50
2018-07-19T09:28:38.365Z,3.12
2018-07-19T09:31:06.399Z,2.40
2018-07-19T09:33:34.434Z,2.30
2018-07-19T09:36:02.483Z,2.40
2018-07-19T09:40:57.894Z,2.17
2018-07-19T09:43:25.942Z,2.35
2018-07-19T09:45:53.974Z,2.45
2018-07-19T09:48:22.013Z,2.10
2018-07-19T09:50:50.050Z,2.20
2018-07-19T09:53:18.092Z,2.30
2018-07-19T09:55:46.173Z,2.10
2018-07-19T09:58:14.158Z,2.00
2018-07-19T10:00:47.813Z,2.20
2018-07-19T10:03:15.837Z,2.00
2018-07-19T10:05:43.891Z,1.90
2018-07-19T10:08:11.917Z,2.10
2018-07-19T10:10:39.956Z,1.95
2018-07-19T10:13:08.001Z,1.87
2018-07-19T10:15:36.046Z,1.80
2018-07-19T10:18:04.077Z,1.90
2018-07-19T10:20:32.163Z,1.70
2018-07-19T10:25:27.529Z,1.70
2018-07-19T10:27:55.562Z,1.90
2018-07-19T10:30:23.605Z,1.90
2018-07-19T10:32:51.643Z,1.80
2018-07-19T10:35:19.682Z,1.90
2018-07-19T10:37:47.730Z,2.00
2018-07-19T10:40:15.774Z,1.85
2018-07-19T10:42:43.807Z,1.70
2018-07-19T10:45:11.846Z,1.90
2018-07-19T10:59:56.819Z,2.00
2018-07-19T11:02:24.858Z,1.72
2018-07-19T11:04:52.928Z,1.92
2018-07-19T11:14:43.186Z,1.80
2018-07-19T11:17:11.940Z,1.80
2018-07-19T11:34:24.496Z,3.10
2018-07-19T11:36:52.533Z,1.80
2018-07-19T11:39:20.565Z,2.00
2018-07-19T11:56:32.935Z,1.75
2018-07-19T12:26:02.999Z,1.90
2018-07-19T12:30:58.449Z,1.70
2018-07-19T12:58:00.355Z,1.82
2018-07-19T13:05:23.580Z,1.60
2018-07-19T13:25:03.089Z,1.75
2018-07-19T13:29:58.310Z,1.75
2018-07-19T14:06:55.970Z,1.62
2018-07-19T14:26:35.731Z,1.60
2018-07-19T14:31:31.206Z,1.60
2018-07-19T14:33:59.254Z,1.55
2018-07-19T14:43:49.530Z,1.60
2018-07-19T14:46:17.607Z,1.72
2018-07-19T14:56:08.735Z,1.90
2018-07-19T14:58:36.779Z,1.67
2018-07-19T15:18:16.282Z,1.85
2018-07-19T15:20:44.322Z,1.82
2018-07-19T15:30:34.291Z,1.70
2018-07-19T15:37:56.885Z,1.80
2018-07-19T15:42:52.420Z,1.75
2018-07-19T15:55:10.037Z,1.80
2018-07-19T16:02:32.642Z,1.60
2018-07-19T16:05:00.686Z,2.02
2018-07-19T16:41:51.434Z,1.83
2018-07-19T16:49:14.034Z,1.62
2018-07-19T16:51:42.086Z,1.75
2018-07-19T16:54:10.122Z,1.80
2018-07-19T16:56:38.166Z,1.57
2018-07-19T16:59:06.206Z,1.85
2018-07-19T17:01:34.242Z,1.85
2018-07-19T17:04:02.290Z,2.00
2018-07-19T17:06:30.343Z,1.90
2018-07-19T17:08:58.378Z,1.70
2018-07-19T17:11:26.426Z,1.90
2018-07-19T17:13:55.109Z,2.12
2018-07-19T17:16:23.158Z,1.95
2018-07-19T17:18:51.194Z,1.60
2018-07-19T17:21:19.251Z,1.90
2018-07-19T17:23:47.294Z,1.80
2018-07-19T17:26:15.341Z,1.90
2018-07-19T17:28:43.383Z,1.75
2018-07-19T17:31:11.425Z,1.70
2018-07-19T17:33:39.241Z,1.95
2018-07-19T17:36:07.289Z,1.70
2018-07-19T17:38:35.330Z,1.95
2018-07-19T17:41:03.370Z,1.80
2018-07-19T18:05:37.639Z,2.00
2018-07-19T18:42:28.498Z,2.05
2018-07-19T19:16:52.806Z,2.55
2018-07-19T20:33:03.353Z,3.42
2018-07-19T20:55:11.381Z,2.60
2018-07-19T21:05:02.326Z,2.62
2018-07-19T21:14:52.860Z,2.77
2018-07-19T21:37:00.598Z,3.05
2018-07-19T21:39:28.642Z,2.70
2018-07-19T21:41:56.725Z,2.80
2018-07-19T21:44:24.795Z,2.62
2018-07-19T21:56:42.233Z,3.40
2018-07-19T21:59:10.321Z,3.25
2018-07-19T22:01:44.938Z,3.35
2018-07-19T22:04:13.754Z,2.75
2018-07-19T22:06:41.987Z,3.35
2018-07-19T22:09:11.714Z,2.95
2018-07-19T22:11:40.022Z,3.10
2018-07-19T22:14:08.490Z,3.33
2018-07-19T22:16:37.574Z,3.20
2018-07-19T22:19:05.813Z,3.33
2018-07-19T22:21:34.013Z,3.00
2018-07-19T22:24:02.370Z,2.92
2018-07-19T22:26:30.525Z,3.03
2018-07-19T22:28:58.582Z,3.40
2018-07-19T22:31:26.734Z,2.70
2018-07-19T22:33:54.793Z,2.77
2018-07-19T22:36:22.835Z,2.90
2018-07-19T22:38:50.893Z,2.77
2018-07-19T22:41:18.974Z,2.90
2018-07-19T22:43:46.804Z,3.00
2018-07-19T22:46:14.889Z,3.00
2018-07-19T22:48:42.942Z,3.03
2018-07-19T22:51:11.007Z,3.10
2018-07-19T22:53:38.857Z,3.17
2018-07-19T22:56:06.946Z,3.00
2018-07-19T22:58:35.013Z,2.53
2018-07-19T23:01:03.069Z,2.60
2018-07-19T23:03:31.130Z,2.80
2018-07-19T23:05:59.190Z,2.80
2018-07-19T23:08:27.255Z,2.50
2018-07-19T23:10:55.291Z,2.87
2018-07-19T23:13:23.334Z,2.97
2018-07-19T23:15:51.382Z,3.00
2018-07-19T23:18:19.438Z,2.87
2018-07-19T23:20:47.526Z,2.83
2018-07-19T23:23:15.598Z,2.63
2018-07-19T23:25:43.673Z,2.87
2018-07-19T23:28:11.756Z,3.03
2018-07-19T23:30:40.070Z,3.17
2018-07-19T23:33:08.129Z,2.57
2018-07-19T23:35:48.057Z,2.60
2018-07-19T23:38:20.111Z,2.67
2018-07-19T23:40:49.902Z,2.60
2018-07-19T23:43:20.952Z,2.87
2018-07-19T23:46:52.134Z,2.43
2018-07-19T23:49:20.185Z,2.80
2018-07-19T23:51:48.232Z,2.97
2018-07-19T23:54:16.321Z,3.23
2018-07-19T23:56:44.406Z,2.80
2018-07-19T23:59:12.490Z,2.73
